Time;durP1;ratioP1;P1;durP2;ratioP2;P2;SDS_P1;SDS_P2;PMS_P1;PMS_P2;Temp;Humidity;BMP_temperature;BMP_pressure;BME280_temperature;BME280_humidity;BME280_pressure;Samples;Min_cycle;Max_cycle;Signal;HPM_P1;HPM_P2
2023/12/19 00:08:49;;;;;;;0.17;0.00;;;5.30;85.10;;;;;;21084529;28;20541;-59
2023/12/19 00:18:54;;;;;;;0.10;0.00;;;5.40;85.80;;;;;;21046713;28;20028;-51
2023/12/19 00:28:56;;;;;;;0.00;0.00;;;5.20;85.90;;;;;;21064795;28;20090;-49
2023/12/19 00:38:58;;;;;;;0.25;0.10;;;5.30;86.00;;;;;;21048581;28;20033;-55
2023/12/19 00:49:00;;;;;;;0.30;0.10;;;5.20;86.80;;;;;;21041873;28;20050;-52
2023/12/19 00:59:02;;;;;;;0.00;0.00;;;4.90;87.10;;;;;;21072165;28;20144;-57
2023/12/19 01:09:09;;;;;;;0.17;0.00;;;5.30;85.70;;;;;;21079738;28;20032;-59
2023/12/19 01:19:11;;;;;;;0.00;0.00;;;5.30;86.30;;;;;;21057397;28;20070;-59
2023/12/19 01:29:13;;;;;;;0.00;0.00;;;5.20;85.80;;;;;;20999364;28;20116;-53
2023/12/19 01:39:15;;;;;;;0.10;0.00;;;5.10;85.70;;;;;;20993770;28;20088;-51
2023/12/19 01:49:18;;;;;;;0.10;0.00;;;5.20;84.90;;;;;;21039383;28;20035;-59
2023/12/19 01:59:20;;;;;;;0.20;0.00;;;5.00;86.50;;;;;;21006894;28;20036;-59
2023/12/19 02:09:22;;;;;;;2.97;0.00;;;4.80;86.40;;;;;;20991028;28;20496;-51
2023/12/19 02:19:23;;;;;;;0.47;0.20;;;4.90;86.30;;;;;;21026094;28;20029;-51
2023/12/19 02:29:26;;;;;;;0.00;0.00;;;5.00;87.00;;;;;;21065015;28;20032;-59
2023/12/19 02:39:31;;;;;;;0.10;0.08;;;5.10;86.20;;;;;;21021930;28;20090;-56
2023/12/19 02:49:33;;;;;;;0.00;0.00;;;5.10;86.80;;;;;;21040717;28;20139;-59
2023/12/19 02:59:34;;;;;;;0.10;0.00;;;5.20;85.60;;;;;;21058398;28;20023;-59
2023/12/19 03:09:37;;;;;;;0.10;0.10;;;5.30;85.40;;;;;;21070197;28;20062;-50
2023/12/19 03:19:39;;;;;;;0.00;0.00;;;5.30;84.40;;;;;;21032885;28;20040;-57
2023/12/19 03:29:42;;;;;;;0.00;0.00;;;5.20;84.90;;;;;;21013973;28;20028;-48
2023/12/19 03:39:44;;;;;;;0.52;0.10;;;5.00;84.90;;;;;;21069395;28;20032;-51
2023/12/19 03:49:46;;;;;;;0.10;0.00;;;5.20;85.10;;;;;;20957537;28;20037;-55
2023/12/19 03:59:47;;;;;;;0.05;0.00;;;5.20;84.50;;;;;;20966214;28;20394;-54
2023/12/19 04:09:49;;;;;;;0.63;0.00;;;4.70;86.90;;;;;;20968317;28;20040;-53
2023/12/19 04:19:51;;;;;;;0.00;0.00;;;4.70;85.70;;;;;;20973189;28;20029;-56
2023/12/19 04:29:55;;;;;;;0.40;0.17;;;4.90;85.70;;;;;;20982044;28;20037;-49
2023/12/19 04:39:57;;;;;;;0.10;0.10;;;4.90;86.10;;;;;;20984016;28;20035;-50
2023/12/19 04:49:59;;;;;;;0.17;0.00;;;4.70;87.00;;;;;;20985231;28;20032;-58
2023/12/19 05:00:04;;;;;;;0.10;0.10;;;4.70;87.50;;;;;;20974917;28;20029;-57
2023/12/19 05:10:07;;;;;;;0.00;0.00;;;4.80;86.90;;;;;;20979174;28;20032;-58
2023/12/19 05:20:09;;;;;;;0.10;0.00;;;4.80;87.10;;;;;;20974935;28;20044;-51
2023/12/19 05:30:12;;;;;;;0.00;0.00;;;5.20;86.60;;;;;;20970532;28;20390;-51
2023/12/19 05:40:13;;;;;;;0.00;0.00;;;4.90;86.20;;;;;;20981509;28;20053;-49
2023/12/19 05:50:15;;;;;;;1.58;0.10;;;5.20;84.90;;;;;;20979072;28;20312;-52
2023/12/19 06:00:17;;;;;;;0.10;0.03;;;5.30;83.60;;;;;;20963214;28;20036;-50
2023/12/19 06:10:19;;;;;;;0.03;0.00;;;5.20;86.10;;;;;;20960328;28;20032;-58
2023/12/19 06:20:21;;;;;;;0.10;0.00;;;4.80;85.30;;;;;;20974233;28;20687;-49
2023/12/19 06:30:23;;;;;;;0.00;0.00;;;4.90;86.80;;;;;;20996058;28;20044;-59
2023/12/19 06:40:25;;;;;;;0.00;0.00;;;4.90;85.00;;;;;;20980845;28;20043;-52
2023/12/19 06:50:27;;;;;;;0.13;0.08;;;5.20;83.80;;;;;;20995975;28;20029;-53
2023/12/19 07:00:29;;;;;;;0.00;0.00;;;5.20;84.10;;;;;;20967946;28;20033;-59
2023/12/19 07:10:31;;;;;;;0.00;0.00;;;5.30;83.60;;;;;;20962119;28;20037;-58
2023/12/19 07:20:33;;;;;;;0.35;0.10;;;5.80;82.10;;;;;;20956969;28;20049;-58
2023/12/19 07:30:35;;;;;;;0.70;0.10;;;5.60;83.60;;;;;;20919018;28;20041;-59
2023/12/19 07:40:37;;;;;;;0.28;0.00;;;5.60;84.70;;;;;;20913541;28;20025;-58
2023/12/19 07:50:39;;;;;;;0.10;0.00;;;5.70;83.60;;;;;;20911540;28;20055;-58
2023/12/19 08:00:41;;;;;;;0.05;0.00;;;6.20;85.50;;;;;;20933911;28;20036;-58
2023/12/19 08:10:45;;;;;;;0.00;0.00;;;7.10;81.70;;;;;;20933700;28;20038;-60
2023/12/19 08:20:47;;;;;;;0.03;0.03;;;7.80;79.50;;;;;;20954933;28;20037;-51
2023/12/19 08:30:49;;;;;;;0.45;0.00;;;8.60;78.70;;;;;;20986295;28;20025;-50
2023/12/19 08:40:50;;;;;;;0.00;0.00;;;9.20;78.60;;;;;;20989984;28;20021;-49
2023/12/19 08:50:52;;;;;;;0.50;0.00;;;9.90;76.10;;;;;;20979543;28;20037;-53
2023/12/19 09:00:54;;;;;;;0.25;0.00;;;10.60;74.80;;;;;;20988215;28;20040;-59
2023/12/19 09:10:58;;;;;;;0.00;0.00;;;11.40;72.80;;;;;;20986060;28;20041;-51
2023/12/19 09:21:00;;;;;;;0.17;0.00;;;12.40;72.10;;;;;;20970369;28;20522;-56
2023/12/19 09:31:07;;;;;;;0.10;0.00;;;13.10;68.00;;;;;;20907846;28;20036;-59
2023/12/19 09:41:09;;;;;;;0.10;0.10;;;13.80;69.80;;;;;;20908812;28;20509;-49
2023/12/19 09:51:25;;;;;;;0.00;0.00;;;14.10;66.60;;;;;;20894815;28;20032;-51
2023/12/19 10:01:28;;;;;;;0.00;0.00;;;14.60;65.10;;;;;;20879921;28;20034;-53
2023/12/19 10:11:30;;;;;;;0.30;0.08;;;14.90;64.80;;;;;;20893673;28;20025;-51
2023/12/19 10:21:33;;;;;;;0.10;0.00;;;15.20;64.80;;;;;;20935766;28;20040;-59
2023/12/19 10:31:35;;;;;;;0.22;0.10;;;15.40;63.80;;;;;;20978088;28;20032;-54
2023/12/19 10:41:40;;;;;;;0.20;0.10;;;15.80;64.10;;;;;;20941719;28;20105;-52
2023/12/19 10:51:45;;;;;;;0.45;0.20;;;16.10;65.50;;;;;;20976450;28;20036;-59
2023/12/19 11:01:52;;;;;;;0.20;0.00;;;16.30;64.90;;;;;;20974969;28;20098;-53
2023/12/19 11:11:55;;;;;;;0.30;0.05;;;16.50;63.80;;;;;;20975765;28;20086;-52
2023/12/19 11:22:00;;;;;;;0.10;0.10;;;16.30;63.10;;;;;;20962681;28;20053;-52
2023/12/19 11:32:31;;;;;;;0.08;0.08;;;16.40;60.80;;;;;;20923574;28;20103;-55
2023/12/19 11:42:39;;;;;;;0.75;0.15;;;16.40;63.30;;;;;;20918396;28;20029;-50
2023/12/19 11:52:42;;;;;;;0.25;0.10;;;16.50;63.70;;;;;;20901975;28;20033;-53
2023/12/19 12:02:45;;;;;;;0.20;0.10;;;16.40;64.60;;;;;;20904979;28;20044;-57
2023/12/19 12:12:48;;;;;;;0.30;0.20;;;16.30;63.30;;;;;;20911996;28;20041;-50
2023/12/19 12:22:54;;;;;;;0.88;0.13;;;16.10;64.80;;;;;;20926661;28;20045;-52
2023/12/19 12:32:56;;;;;;;0.20;0.20;;;16.00;63.00;;;;;;20956282;28;20025;-52
2023/12/19 12:43:34;;;;;;;0.25;0.10;;;15.80;63.80;;;;;;20976150;28;20040;-57
2023/12/19 12:53:36;;;;;;;0.30;0.10;;;15.50;63.70;;;;;;20971678;28;20113;-53
2023/12/19 13:03:38;;;;;;;0.40;0.30;;;15.00;66.50;;;;;;20978048;28;20101;-56
2023/12/19 13:13:40;;;;;;;0.43;0.20;;;14.30;65.40;;;;;;20978460;28;20039;-55
2023/12/19 13:23:42;;;;;;;0.45;0.20;;;13.60;68.10;;;;;;20970859;28;20044;-50
2023/12/19 13:33:46;;;;;;;0.47;0.30;;;13.00;67.20;;;;;;20963602;28;20390;-50
2023/12/19 13:43:48;;;;;;;0.60;0.22;;;12.50;70.20;;;;;;20968124;28;20060;-51
2023/12/19 13:53:49;;;;;;;0.55;0.30;;;12.10;69.80;;;;;;20975205;28;20040;-49
2023/12/19 14:03:51;;;;;;;0.60;0.20;;;11.50;71.40;;;;;;20967989;28;20605;-53
2023/12/19 14:13:53;;;;;;;0.60;0.30;;;11.20;70.70;;;;;;21013885;28;20029;-59
2023/12/19 14:23:55;;;;;;;0.60;0.30;;;10.80;72.30;;;;;;20959809;28;20041;-50
2023/12/19 14:33:57;;;;;;;0.80;0.30;;;10.40;73.30;;;;;;20954375;28;20484;-50
2023/12/19 14:43:58;;;;;;;3.30;0.10;;;10.00;74.70;;;;;;20967810;28;20037;-51
2023/12/19 14:54:00;;;;;;;0.30;0.03;;;9.70;77.00;;;;;;20970845;28;20033;-51
2023/12/19 15:04:02;;;;;;;0.20;0.00;;;9.20;74.50;;;;;;20968808;28;20031;-51
2023/12/19 15:14:04;;;;;;;7.07;3.00;;;8.10;78.60;;;;;;20959936;28;20032;-51
2023/12/19 15:24:09;;;;;;;0.60;0.30;;;7.20;80.50;;;;;;20964506;28;20494;-54
2023/12/19 15:34:10;;;;;;;0.28;0.10;;;6.70;81.70;;;;;;20965710;28;20079;-51
2023/12/19 15:44:12;;;;;;;0.10;0.00;;;6.50;82.10;;;;;;20962001;28;20037;-57
2023/12/19 15:54:16;;;;;;;0.20;0.10;;;6.10;82.00;;;;;;20945800;28;20044;-58
2023/12/19 16:04:19;;;;;;;0.68;0.10;;;5.80;81.60;;;;;;20962819;28;20036;-57
2023/12/19 16:14:21;;;;;;;0.00;0.00;;;5.80;81.00;;;;;;20996127;28;20031;-55
2023/12/19 16:24:22;;;;;;;0.00;0.00;;;5.60;81.50;;;;;;21049383;28;20494;-58
2023/12/19 16:34:24;;;;;;;0.00;0.00;;;5.20;82.80;;;;;;21042000;28;20032;-58
2023/12/19 16:44:29;;;;;;;0.10;0.00;;;5.20;81.20;;;;;;21039861;28;20029;-56
2023/12/19 16:54:31;;;;;;;0.10;0.00;;;5.10;83.10;;;;;;20990925;28;20040;-56
2023/12/19 17:04:33;;;;;;;0.00;0.00;;;5.00;82.50;;;;;;21017577;28;20118;-54
2023/12/19 17:14:35;;;;;;;0.10;0.00;;;4.90;82.80;;;;;;21006184;28;20029;-58
2023/12/19 17:24:36;;;;;;;0.43;0.10;;;4.80;82.50;;;;;;20978463;28;20044;-58
2023/12/19 17:34:45;;;;;;;0.03;0.00;;;4.60;83.00;;;;;;20985573;28;20551;-58
2023/12/19 17:44:51;;;;;;;0.00;0.00;;;4.50;84.20;;;;;;20992581;28;20028;-56
2023/12/19 17:54:52;;;;;;;0.20;0.00;;;5.10;80.90;;;;;;20991311;28;20032;-59
2023/12/19 18:04:54;;;;;;;0.20;0.10;;;4.90;82.20;;;;;;21075121;28;20032;-53
2023/12/19 18:14:56;;;;;;;0.17;0.08;;;4.70;82.40;;;;;;21005390;28;20036;-58
2023/12/19 18:24:59;;;;;;;0.00;0.00;;;4.60;82.90;;;;;;20979762;28;20048;-54
2023/12/19 18:35:01;;;;;;;0.10;0.00;;;4.40;83.10;;;;;;20931615;28;20075;-62
2023/12/19 18:45:04;;;;;;;0.00;0.00;;;4.30;83.70;;;;;;20973579;28;20036;-48
2023/12/19 18:55:07;;;;;;;0.10;0.00;;;4.50;82.50;;;;;;20993519;28;20040;-47
2023/12/19 19:05:10;;;;;;;0.40;0.00;;;4.40;84.30;;;;;;20951835;28;20459;-53
2023/12/19 19:15:11;;;;;;;0.00;0.00;;;4.10;84.60;;;;;;20967717;28;20514;-60
2023/12/19 19:25:15;;;;;;;0.05;0.00;;;3.90;85.60;;;;;;20979007;28;20056;-47
2023/12/19 19:35:16;;;;;;;0.13;0.00;;;3.80;85.30;;;;;;20951047;28;20043;-60
2023/12/19 19:45:18;;;;;;;0.40;0.10;;;3.80;85.20;;;;;;21036160;28;20077;-56
2023/12/19 19:55:20;;;;;;;0.38;0.10;;;3.90;83.80;;;;;;21035510;28;20036;-48
2023/12/19 20:05:28;;;;;;;0.60;0.00;;;4.10;82.80;;;;;;21036391;28;20086;-59
2023/12/19 20:15:30;;;;;;;0.00;0.00;;;4.00;84.10;;;;;;21033432;28;20032;-59
2023/12/19 20:25:32;;;;;;;0.22;0.10;;;3.80;85.00;;;;;;21072633;28;20093;-46
2023/12/19 20:35:34;;;;;;;0.13;0.00;;;3.60;85.00;;;;;;21041039;28;20045;-50
2023/12/19 20:45:36;;;;;;;0.25;0.00;;;3.60;85.50;;;;;;20827592;28;20091;-47
2023/12/19 20:55:41;;;;;;;0.00;0.00;;;3.60;86.00;;;;;;20832573;28;20037;-47
2023/12/19 21:05:43;;;;;;;0.00;0.00;;;3.40;85.40;;;;;;20802951;28;20444;-48
2023/12/19 21:15:44;;;;;;;0.00;0.00;;;3.40;86.20;;;;;;20958591;28;20505;-44
2023/12/19 21:25:46;;;;;;;0.20;0.00;;;3.50;86.30;;;;;;21029404;28;20044;-59
2023/12/19 21:35:48;;;;;;;0.10;0.00;;;3.50;85.50;;;;;;21051972;28;20051;-59
2023/12/19 21:45:50;;;;;;;0.10;0.00;;;3.30;87.30;;;;;;21042148;28;20032;-59
2023/12/19 21:55:52;;;;;;;0.00;0.00;;;3.30;86.00;;;;;;21000412;28;20432;-47
2023/12/19 22:05:54;;;;;;;0.10;0.00;;;3.30;85.70;;;;;;21023224;28;20039;-47
2023/12/19 22:15:56;;;;;;;0.10;0.00;;;3.40;85.60;;;;;;21040131;28;20101;-53
2023/12/19 22:26:01;;;;;;;0.00;0.00;;;3.30;86.60;;;;;;21014762;28;20049;-59
2023/12/19 22:36:07;;;;;;;0.00;0.00;;;3.00;86.50;;;;;;20944549;28;20024;-44
2023/12/19 22:46:09;;;;;;;0.40;0.00;;;3.00;87.10;;;;;;20981020;28;20032;-59
2023/12/19 22:56:20;;;;;;;0.00;0.00;;;3.20;85.90;;;;;;20962699;28;20037;-56
2023/12/19 23:06:24;;;;;;;0.13;0.00;;;3.00;86.90;;;;;;20973847;28;20041;-59
2023/12/19 23:16:26;;;;;;;0.10;0.00;;;3.00;87.20;;;;;;20999653;28;20170;-44
2023/12/19 23:26:30;;;;;;;0.00;0.00;;;3.10;86.10;;;;;;21004903;28;20044;-57
2023/12/19 23:36:32;;;;;;;0.00;0.00;;;3.10;86.00;;;;;;21064517;28;20032;-50
2023/12/19 23:46:34;;;;;;;0.00;0.00;;;3.00;87.20;;;;;;21051598;28;20070;-44
2023/12/19 23:56:36;;;;;;;0.10;0.00;;;3.00;87.60;;;;;;21058020;28;20024;-59
